FIMR

Details ICAO FIMR (RRG)
Name PLAINE CORAIL
Region Mauritius
Timezone Indian/Mauritius (UTC+4.0)
Plans Departing 12
Arriving 16
Stats Elevation 95 ft / 29 m (AMSL)
Location -19.757658° 63.360982°
Runways 1
Magnetic Variation 17.140° W
Sunrise 2017-12-17 01:04:22 UTC / 2017-12-17 05:04:22 Local
Sunset 2017-12-17 14:23:34 UTC / 2017-12-17 18:23:34 Local
Advertisement - Login to hide

Runways

ID Width Length Bearing (true) Bearing (mag) Surface Threshold Offset Overrun Length
12 98 ft / 30 m 4,222 ft / 1,287 m 105.95° 123.09° Asphalt 440 ft / 134 m 98 ft / 30 m
30 98 ft / 30 m 4,222 ft / 1,287 m 285.94° 303.08° Asphalt 240 ft / 73 m 98 ft / 30 m

Map

Weather


0- 5 10 15 20 25 30 35+ Temperature / ° C

Clouds and Precipitation
Forecast for 2017-12-17 00:00 UTC. Updated 2 hours ago

Ground ~20,000 ft ~40,000 ft Winds

METAR

Not found

TAF

TAF FIMR 162350Z 1700/1718 09015G27KT 9999 SCT018
Warning: Do not use this data for real-world aviation or navigation. No guarantee of current accuracy is given.